createdAt,value
2019-03-03T00:02:27.545Z,94.70
2019-03-03T00:04:57.055Z,94.60
2019-03-03T00:07:26.651Z,94.90
2019-03-03T00:09:56.146Z,94.60
2019-03-03T00:12:25.694Z,94.50
2019-03-03T00:14:55.204Z,94.60
2019-03-03T00:17:24.751Z,94.50
2019-03-03T00:19:54.351Z,94.40
2019-03-03T00:22:23.883Z,94.20
2019-03-03T00:24:53.426Z,94.90
2019-03-03T00:27:22.954Z,94.70
2019-03-03T00:29:52.467Z,94.10
2019-03-03T00:32:21.958Z,94.10
2019-03-03T00:34:51.507Z,94.50
2019-03-03T00:37:37.774Z,94.30
2019-03-03T00:40:29.067Z,94.70
2019-03-03T00:43:17.543Z,94.40
2019-03-03T00:46:14.801Z,94.30
2019-03-03T00:49:02.196Z,94.70
2019-03-03T00:52:02.548Z,95.00
2019-03-03T00:54:57.041Z,95.00
2019-03-03T00:57:35.805Z,94.60
2019-03-03T01:00:17.783Z,94.40
2019-03-03T01:03:11.466Z,94.70
2019-03-03T01:06:08.973Z,94.50
2019-03-03T01:09:03.312Z,94.60
2019-03-03T01:11:46.153Z,94.40
2019-03-03T01:14:50.010Z,94.80
2019-03-03T01:17:27.870Z,94.60
2019-03-03T01:20:17.850Z,94.60
2019-03-03T01:23:12.335Z,94.80
2019-03-03T01:25:41.826Z,94.60
2019-03-03T01:28:11.389Z,94.60
2019-03-03T01:30:40.890Z,94.70
2019-03-03T01:33:10.418Z,95.00
2019-03-03T01:35:39.929Z,94.80
2019-03-03T01:38:31.314Z,94.60
2019-03-03T01:41:00.826Z,94.80
2019-03-03T01:43:30.360Z,94.90
2019-03-03T01:45:59.867Z,94.50
2019-03-03T01:48:29.555Z,95.00
2019-03-03T01:50:59.075Z,94.50
2019-03-03T01:53:28.600Z,94.60
2019-03-03T01:55:58.152Z,94.60
2019-03-03T01:58:27.678Z,94.70
2019-03-03T02:00:57.190Z,94.50
2019-03-03T02:03:27.329Z,94.30
2019-03-03T02:05:56.857Z,94.60
2019-03-03T02:08:26.396Z,94.50
2019-03-03T02:10:56.001Z,94.50
2019-03-03T02:13:25.699Z,94.80
2019-03-03T02:15:55.187Z,94.50
2019-03-03T02:18:24.753Z,94.50
2019-03-03T02:20:54.274Z,94.90
2019-03-03T02:23:23.826Z,94.50
2019-03-03T02:25:53.371Z,94.70
2019-03-03T02:28:22.884Z,94.40
2019-03-03T02:30:52.398Z,94.40
2019-03-03T02:33:21.982Z,94.30
2019-03-03T02:35:51.453Z,94.40
2019-03-03T02:38:20.991Z,94.40
2019-03-03T02:40:50.548Z,94.50
2019-03-03T02:43:20.065Z,94.40
2019-03-03T02:45:49.629Z,94.30
2019-03-03T02:48:19.158Z,94.40
2019-03-03T02:50:48.741Z,94.40
2019-03-03T02:53:18.299Z,94.50
2019-03-03T02:55:47.877Z,94.50
2019-03-03T02:58:17.435Z,94.70
2019-03-03T03:00:54.266Z,94.70
2019-03-03T03:03:23.981Z,94.50
2019-03-03T03:06:08.888Z,94.70
2019-03-03T03:08:56.231Z,95.10
2019-03-03T03:11:39.128Z,95.30
2019-03-03T03:14:26.544Z,95.40
2019-03-03T03:17:15.024Z,95.40
2019-03-03T03:20:08.431Z,95.70
2019-03-03T03:22:56.121Z,95.90
2019-03-03T03:25:41.713Z,95.80
2019-03-03T03:28:42.225Z,96.40
2019-03-03T03:31:29.945Z,95.90
2019-03-03T03:34:16.124Z,96.20
2019-03-03T03:37:07.634Z,96.60
2019-03-03T03:39:54.657Z,96.30
2019-03-03T03:42:45.908Z,96.90
2019-03-03T03:45:27.345Z,97.10
2019-03-03T03:48:15.838Z,96.90
2019-03-03T03:51:02.716Z,97.00
2019-03-03T03:53:51.191Z,97.10
2019-03-03T03:56:38.758Z,97.30
2019-03-03T03:59:30.344Z,97.40
2019-03-03T04:02:18.779Z,97.50
2019-03-03T04:05:13.227Z,98.00
2019-03-03T04:08:01.704Z,98.10
2019-03-03T04:10:38.002Z,97.70
2019-03-03T04:13:35.307Z,98.30
2019-03-03T04:16:23.761Z,98.20
2019-03-03T04:19:00.366Z,98.20
2019-03-03T04:21:52.060Z,98.70
2019-03-03T04:24:43.437Z,98.60
2019-03-03T04:27:30.733Z,98.80
2019-03-03T04:30:19.180Z,98.70
2019-03-03T04:33:16.597Z,98.40
2019-03-03T04:36:20.415Z,99.00
2019-03-03T04:39:14.702Z,98.80
2019-03-03T04:42:00.741Z,99.00
2019-03-03T04:44:55.285Z,99.00
2019-03-03T04:47:43.889Z,99.50
2019-03-03T04:50:50.731Z,98.80
2019-03-03T04:53:37.755Z,99.50
2019-03-03T04:56:24.974Z,99.80
2019-03-03T04:59:16.224Z,99.70
2019-03-03T05:02:03.562Z,99.90
2019-03-03T05:04:44.307Z,99.90
2019-03-03T05:07:30.100Z,99.90
2019-03-03T05:10:36.675Z,99.90
2019-03-03T05:13:16.413Z,99.80
2019-03-03T05:16:02.201Z,99.90
2019-03-03T05:18:38.674Z,99.90
2019-03-03T05:21:08.249Z,99.90
2019-03-03T05:23:37.799Z,99.90
2019-03-03T05:26:07.348Z,99.90
2019-03-03T05:28:36.877Z,99.90
2019-03-03T05:31:06.396Z,99.90
2019-03-03T05:33:35.913Z,99.90
2019-03-03T05:36:05.464Z,99.90
2019-03-03T05:38:34.997Z,99.90
2019-03-03T05:41:16.280Z,99.90
2019-03-03T05:43:46.675Z,99.90
2019-03-03T05:46:16.249Z,99.90
2019-03-03T05:48:45.767Z,99.90
2019-03-03T05:51:15.377Z,99.90
2019-03-03T05:53:44.915Z,99.90
2019-03-03T05:56:14.410Z,99.90
2019-03-03T05:58:44.000Z,99.90
2019-03-03T06:01:13.506Z,99.90
2019-03-03T06:03:43.061Z,99.90
2019-03-03T06:06:12.619Z,99.90
2019-03-03T06:08:42.125Z,99.90
2019-03-03T06:11:11.651Z,99.90
2019-03-03T06:13:41.184Z,99.90
2019-03-03T06:16:10.831Z,99.90
2019-03-03T06:18:40.350Z,99.90
2019-03-03T06:21:09.879Z,99.90
2019-03-03T06:23:39.399Z,99.90
2019-03-03T06:26:08.957Z,99.90
2019-03-03T06:28:38.567Z,99.90
2019-03-03T06:31:08.095Z,99.90
2019-03-03T06:33:37.637Z,99.90
2019-03-03T06:36:07.163Z,99.90
2019-03-03T06:38:36.666Z,99.90
2019-03-03T06:41:06.293Z,99.90
2019-03-03T06:43:35.804Z,99.90
2019-03-03T06:46:05.333Z,99.90
2019-03-03T06:48:34.852Z,99.90
2019-03-03T06:51:04.388Z,99.90
2019-03-03T06:53:33.894Z,99.90
2019-03-03T06:56:03.425Z,99.90
2019-03-03T06:58:32.988Z,99.90
2019-03-03T07:01:02.523Z,99.90
2019-03-03T07:03:32.059Z,99.90
2019-03-03T07:06:01.633Z,99.90
2019-03-03T07:08:31.143Z,99.90
2019-03-03T07:11:00.639Z,99.90
2019-03-03T07:13:30.171Z,99.90
2019-03-03T07:15:59.707Z,99.90
2019-03-03T07:18:29.316Z,99.90
2019-03-03T07:20:58.842Z,99.90
2019-03-03T07:23:28.394Z,99.90
2019-03-03T07:25:57.942Z,99.90
2019-03-03T07:28:27.525Z,99.90
2019-03-03T07:30:57.185Z,99.90
2019-03-03T07:33:31.897Z,99.90
2019-03-03T07:36:01.421Z,99.90
2019-03-03T07:38:31.341Z,99.90
2019-03-03T07:41:00.844Z,99.90
2019-03-03T07:43:30.431Z,99.90
2019-03-03T07:45:59.943Z,99.90
2019-03-03T07:48:29.482Z,99.90
2019-03-03T07:50:59.010Z,99.90
2019-03-03T07:53:28.553Z,99.90
2019-03-03T07:55:58.114Z,99.90
2019-03-03T07:58:27.797Z,99.90
2019-03-03T08:00:57.346Z,99.90
2019-03-03T08:03:26.877Z,99.90
2019-03-03T08:05:56.381Z,99.90
2019-03-03T08:08:25.932Z,99.90
2019-03-03T08:10:55.467Z,99.90
2019-03-03T08:13:25.069Z,99.90
2019-03-03T08:15:54.571Z,99.90
2019-03-03T08:18:24.196Z,99.90
2019-03-03T08:20:53.715Z,99.90
2019-03-03T08:23:23.292Z,99.90
2019-03-03T08:25:52.857Z,99.90
2019-03-03T08:28:22.403Z,99.90
2019-03-03T08:30:51.909Z,99.90
2019-03-03T08:33:21.411Z,99.90
2019-03-03T08:35:50.983Z,99.90
2019-03-03T08:38:20.523Z,99.90
2019-03-03T08:40:50.062Z,99.90
2019-03-03T08:43:44.632Z,99.90
2019-03-03T08:46:34.936Z,99.90
2019-03-03T08:49:23.394Z,99.90
2019-03-03T08:52:13.504Z,99.90
2019-03-03T08:55:10.667Z,99.90
2019-03-03T08:58:04.971Z,99.90
2019-03-03T09:00:58.183Z,99.90
2019-03-03T09:03:42.999Z,99.90
2019-03-03T09:06:43.680Z,99.90
2019-03-03T09:09:29.776Z,99.90
2019-03-03T09:12:07.168Z,99.90
2019-03-03T09:14:45.462Z,99.90
2019-03-03T09:17:37.197Z,99.90
2019-03-03T09:20:16.808Z,99.90
2019-03-03T09:23:04.162Z,99.90
2019-03-03T09:25:58.639Z,99.90
2019-03-03T09:28:50.152Z,99.90
2019-03-03T09:31:38.584Z,99.90
2019-03-03T09:34:31.489Z,99.90
2019-03-03T09:37:29.058Z,99.90
2019-03-03T09:40:32.820Z,99.90
2019-03-03T09:43:17.063Z,99.90
2019-03-03T09:46:20.890Z,99.90
2019-03-03T09:49:00.948Z,99.90
2019-03-03T09:51:48.522Z,99.90
2019-03-03T09:54:35.693Z,99.90
2019-03-03T09:57:17.532Z,99.90
2019-03-03T10:00:21.110Z,99.90
2019-03-03T10:03:15.571Z,99.90
2019-03-03T10:06:13.591Z,99.90
2019-03-03T10:09:05.020Z,99.90
2019-03-03T10:11:44.246Z,99.90
2019-03-03T10:14:31.381Z,99.90
2019-03-03T10:17:26.075Z,99.90
2019-03-03T10:20:33.202Z,99.90
2019-03-03T10:23:13.835Z,99.90
2019-03-03T10:26:00.904Z,99.90
2019-03-03T10:28:47.483Z,99.90
2019-03-03T10:31:39.060Z,99.90
2019-03-03T10:34:27.575Z,99.90
2019-03-03T10:37:14.929Z,99.90
2019-03-03T10:40:06.423Z,99.90
2019-03-03T10:42:48.591Z,99.90
2019-03-03T10:45:26.259Z,99.90
2019-03-03T10:48:20.586Z,99.90
2019-03-03T10:51:07.952Z,99.90
2019-03-03T10:53:52.344Z,99.90
2019-03-03T10:56:32.990Z,99.90
2019-03-03T10:59:24.488Z,99.90
2019-03-03T11:02:15.841Z,99.90
2019-03-03T11:05:07.467Z,99.90
2019-03-03T11:07:57.057Z,99.90
2019-03-03T11:10:43.313Z,99.90
2019-03-03T11:13:30.415Z,99.90
2019-03-03T11:16:18.859Z,99.90
2019-03-03T11:19:13.837Z,99.90
2019-03-03T11:22:01.326Z,99.90
2019-03-03T11:24:52.449Z,99.90
2019-03-03T11:27:35.933Z,99.90
2019-03-03T11:30:24.273Z,99.90
2019-03-03T11:33:18.857Z,99.90
2019-03-03T11:36:13.503Z,99.90
2019-03-03T11:39:07.960Z,99.90
2019-03-03T11:41:44.181Z,99.90
2019-03-03T11:44:42.031Z,99.90
2019-03-03T11:47:24.027Z,99.90
2019-03-03T11:50:18.622Z,99.90
2019-03-03T11:52:54.364Z,99.90
2019-03-03T11:55:29.015Z,99.90
2019-03-03T11:58:26.511Z,99.90
2019-03-03T12:01:13.914Z,99.90
2019-03-03T12:03:58.425Z,99.90
2019-03-03T12:06:46.888Z,99.90
2019-03-03T12:09:47.661Z,99.90
2019-03-03T12:12:34.828Z,99.90
2019-03-03T12:15:18.809Z,99.90
2019-03-03T12:18:05.872Z,99.90
2019-03-03T12:20:54.341Z,99.90
2019-03-03T12:23:35.720Z,99.90
2019-03-03T12:26:24.271Z,99.90
2019-03-03T12:29:18.824Z,99.90
2019-03-03T12:32:10.386Z,99.90
2019-03-03T12:34:46.414Z,99.90
2019-03-03T12:37:47.235Z,99.90
2019-03-03T12:40:54.363Z,99.90
2019-03-03T12:43:46.016Z,99.90
2019-03-03T12:46:37.813Z,99.90
2019-03-03T12:49:35.303Z,99.90
2019-03-03T12:52:22.493Z,99.90
2019-03-03T12:55:12.736Z,99.90
2019-03-03T12:58:10.836Z,99.90
2019-03-03T13:01:11.411Z,99.90
2019-03-03T13:03:59.863Z,99.90
2019-03-03T13:06:42.854Z,99.90
2019-03-03T13:09:18.853Z,99.90
2019-03-03T13:12:10.178Z,99.90
2019-03-03T13:14:48.085Z,99.90
2019-03-03T13:17:55.224Z,99.90
2019-03-03T13:20:34.321Z,99.90
2019-03-03T13:23:28.399Z,99.90
2019-03-03T13:26:10.484Z,99.90
2019-03-03T13:28:56.046Z,99.90
2019-03-03T13:31:50.884Z,99.90
2019-03-03T13:34:39.360Z,99.90
2019-03-03T13:37:43.183Z,99.90
2019-03-03T13:40:26.061Z,99.90
2019-03-03T13:42:57.266Z,99.90
2019-03-03T13:45:31.840Z,99.90
2019-03-03T13:48:01.554Z,99.90
2019-03-03T13:50:31.221Z,99.90
2019-03-03T13:53:00.904Z,99.90
2019-03-03T13:55:30.782Z,99.90
2019-03-03T13:58:00.377Z,99.90
2019-03-03T14:00:29.926Z,99.90
2019-03-03T14:02:59.473Z,99.90
2019-03-03T14:05:29.130Z,99.90
2019-03-03T14:07:58.713Z,99.90
2019-03-03T14:10:28.337Z,99.90
2019-03-03T14:12:57.880Z,99.90
2019-03-03T14:15:27.430Z,99.90
2019-03-03T14:17:58.064Z,99.90
2019-03-03T14:20:27.789Z,99.90
2019-03-03T14:22:57.366Z,99.90
2019-03-03T14:25:27.230Z,99.90
2019-03-03T14:27:56.773Z,99.90
2019-03-03T14:30:26.774Z,99.90
2019-03-03T14:32:56.321Z,99.90
2019-03-03T14:35:25.849Z,99.90
2019-03-03T14:37:55.375Z,99.90
2019-03-03T14:40:24.923Z,99.90
2019-03-03T14:42:54.505Z,99.90
2019-03-03T14:45:24.453Z,99.90
2019-03-03T14:47:53.943Z,99.90
2019-03-03T14:50:23.706Z,99.90
2019-03-03T14:52:53.274Z,99.90
2019-03-03T14:55:22.929Z,99.90
2019-03-03T14:57:52.474Z,99.90
2019-03-03T15:00:28.542Z,99.90
2019-03-03T15:02:59.504Z,99.90
2019-03-03T15:05:29.272Z,99.90
2019-03-03T15:07:58.970Z,99.90
2019-03-03T15:10:28.536Z,99.90
2019-03-03T15:12:58.460Z,99.90
2019-03-03T15:15:28.749Z,99.90
2019-03-03T15:17:58.377Z,99.90
2019-03-03T15:20:28.999Z,99.90
2019-03-03T15:22:58.556Z,99.90
2019-03-03T15:25:29.633Z,99.90
2019-03-03T15:28:00.100Z,99.90
2019-03-03T15:30:30.856Z,99.90
2019-03-03T15:33:02.126Z,99.90
2019-03-03T15:35:32.028Z,99.90
2019-03-03T15:38:01.592Z,99.90
2019-03-03T15:40:31.384Z,99.90
2019-03-03T15:43:01.516Z,99.90
2019-03-03T15:45:32.065Z,99.90
2019-03-03T15:48:01.748Z,99.90
2019-03-03T15:50:31.465Z,99.90
2019-03-03T15:53:01.075Z,99.90
2019-03-03T15:55:30.808Z,99.90
2019-03-03T15:58:00.494Z,99.90
2019-03-03T16:00:49.441Z,99.90
2019-03-03T16:03:19.855Z,99.90
2019-03-03T16:05:49.450Z,99.90
2019-03-03T16:08:19.145Z,99.90
2019-03-03T16:10:48.850Z,99.90
2019-03-03T16:13:18.610Z,99.90
2019-03-03T16:15:48.455Z,99.90
2019-03-03T16:18:18.007Z,99.90
2019-03-03T16:20:47.715Z,99.90
2019-03-03T16:23:17.394Z,99.90
2019-03-03T16:25:46.977Z,99.90
2019-03-03T16:28:16.607Z,99.90
2019-03-03T16:30:46.253Z,99.90
2019-03-03T16:33:20.486Z,99.90
2019-03-03T16:35:47.024Z,99.90
2019-03-03T16:38:17.957Z,99.90
2019-03-03T16:40:47.557Z,99.90
2019-03-03T16:43:17.090Z,99.90
2019-03-03T16:45:50.741Z,99.90
2019-03-03T16:48:20.304Z,99.90
2019-03-03T16:50:49.949Z,99.90
2019-03-03T16:53:20.290Z,99.90
2019-03-03T16:55:50.047Z,99.90
2019-03-03T16:58:19.976Z,99.90
2019-03-03T17:00:50.071Z,99.90
2019-03-03T17:03:19.849Z,99.90
2019-03-03T17:05:49.667Z,99.90
2019-03-03T17:08:19.788Z,99.90
2019-03-03T17:10:49.935Z,99.90
2019-03-03T17:13:19.633Z,99.90
2019-03-03T17:15:49.380Z,99.90
2019-03-03T17:18:21.801Z,99.90
2019-03-03T17:20:51.695Z,99.90
2019-03-03T17:23:21.433Z,99.90
2019-03-03T17:25:51.397Z,99.90
2019-03-03T17:28:20.963Z,99.90
2019-03-03T17:30:51.941Z,99.90
2019-03-03T17:33:21.520Z,99.90
2019-03-03T17:35:51.279Z,99.90
2019-03-03T17:38:22.022Z,99.90
2019-03-03T17:40:51.642Z,99.90
2019-03-03T17:43:21.141Z,99.90
2019-03-03T17:45:50.669Z,99.90
2019-03-03T17:48:21.204Z,99.90
2019-03-03T17:50:50.710Z,99.90
2019-03-03T17:53:20.343Z,99.90
2019-03-03T17:55:50.262Z,99.90
2019-03-03T18:02:08.371Z,53.70
2019-03-03T18:04:37.898Z,39.60
2019-03-03T18:07:07.435Z,40.40
2019-03-03T18:09:37.018Z,44.40
2019-03-03T18:12:06.556Z,41.40
2019-03-03T18:14:36.108Z,42.10
2019-03-03T18:17:06.834Z,41.70
2019-03-03T18:19:36.372Z,41.60
2019-03-03T18:22:05.954Z,41.90
2019-03-03T18:24:35.479Z,42.00
2019-03-03T18:27:05.126Z,42.10
2019-03-03T18:29:34.748Z,42.20
2019-03-03T18:32:04.283Z,42.30
2019-03-03T18:34:33.891Z,42.30
2019-03-03T18:37:03.524Z,42.40
2019-03-03T18:39:34.893Z,42.40
2019-03-03T18:42:04.572Z,42.40
2019-03-03T18:44:35.295Z,42.40
2019-03-03T18:47:04.904Z,42.30
2019-03-03T18:49:35.649Z,42.40
2019-03-03T18:52:06.747Z,42.40
2019-03-03T18:54:36.362Z,42.20
2019-03-03T18:57:07.413Z,42.30
2019-03-03T18:59:36.936Z,42.30
2019-03-03T19:02:07.855Z,42.30
2019-03-03T19:04:37.492Z,42.10
2019-03-03T19:07:07.484Z,42.20
2019-03-03T19:09:37.037Z,42.20
2019-03-03T19:12:07.215Z,42.10
2019-03-03T19:14:36.735Z,42.00
2019-03-03T19:17:06.348Z,42.10
2019-03-03T19:19:35.886Z,42.00
2019-03-03T19:22:05.402Z,42.10
2019-03-03T19:24:34.968Z,42.10
2019-03-03T19:27:04.493Z,42.00
2019-03-03T19:29:34.115Z,42.00
2019-03-03T19:32:03.729Z,42.00
2019-03-03T19:34:33.482Z,42.00
2019-03-03T19:37:02.980Z,42.00
2019-03-03T19:39:32.508Z,42.00
2019-03-03T19:42:02.045Z,41.90
2019-03-03T19:44:33.094Z,41.90
2019-03-03T19:47:02.721Z,41.90
2019-03-03T19:49:32.253Z,41.80
2019-03-03T19:52:01.750Z,41.90
2019-03-03T19:54:31.312Z,42.00
2019-03-03T19:57:00.851Z,42.00
2019-03-03T19:59:30.466Z,42.00
2019-03-03T20:01:59.991Z,42.00
2019-03-03T20:04:29.482Z,42.00
2019-03-03T20:07:00.840Z,42.00
2019-03-03T20:09:30.540Z,42.00
2019-03-03T20:12:13.666Z,41.90
2019-03-03T20:14:43.212Z,41.90
2019-03-03T20:17:12.853Z,41.90
2019-03-03T20:19:42.394Z,41.90
2019-03-03T20:22:11.930Z,41.90
2019-03-03T20:24:41.564Z,42.00
2019-03-03T20:27:11.069Z,41.80
2019-03-03T20:29:42.546Z,41.80
2019-03-03T20:32:12.131Z,41.80
2019-03-03T20:34:41.771Z,41.80
2019-03-03T20:37:11.379Z,41.70
2019-03-03T20:39:42.715Z,41.60
2019-03-03T20:42:12.268Z,41.60
2019-03-03T20:44:41.896Z,41.60
2019-03-03T20:47:12.984Z,41.60
2019-03-03T20:52:36.144Z,41.60
2019-03-03T20:55:06.275Z,41.70
2019-03-03T20:57:36.452Z,41.60
2019-03-03T21:00:09.595Z,41.50
2019-03-03T21:02:39.269Z,41.50
2019-03-03T21:05:09.284Z,41.50
2019-03-03T21:07:40.256Z,41.50
2019-03-03T21:10:11.827Z,41.50
2019-03-03T21:12:41.343Z,41.50
2019-03-03T21:15:11.545Z,41.50
2019-03-03T21:17:42.519Z,41.50
2019-03-03T21:20:14.132Z,41.50
2019-03-03T21:22:43.706Z,41.40
2019-03-03T21:25:13.579Z,41.40
2019-03-03T21:27:43.455Z,41.40
2019-03-03T21:30:18.777Z,41.50
2019-03-03T21:32:48.494Z,41.50
2019-03-03T21:35:19.991Z,41.50
2019-03-03T21:37:51.065Z,41.40
2019-03-03T21:40:20.836Z,41.50
2019-03-03T21:42:50.373Z,41.40
2019-03-03T21:45:20.535Z,41.40
2019-03-03T21:47:51.112Z,41.50
2019-03-03T21:50:21.982Z,41.40
2019-03-03T21:52:51.741Z,41.40
2019-03-03T21:55:23.865Z,41.30
2019-03-03T21:57:53.496Z,41.40
2019-03-03T22:00:31.410Z,41.30
2019-03-03T22:03:00.939Z,41.30
2019-03-03T22:05:30.485Z,41.20
2019-03-03T22:08:00.180Z,41.20
2019-03-03T22:10:31.942Z,41.80
2019-03-03T22:13:03.132Z,41.20
2019-03-03T22:15:32.661Z,41.20
2019-03-03T22:18:02.247Z,41.10
2019-03-03T22:20:31.901Z,40.60
2019-03-03T22:23:01.690Z,41.10
2019-03-03T22:25:31.367Z,41.10
2019-03-03T22:28:01.002Z,41.10
2019-03-03T22:30:30.745Z,41.10
2019-03-03T22:33:00.337Z,41.10
2019-03-03T22:35:29.885Z,41.10
2019-03-03T22:37:59.488Z,41.10
2019-03-03T22:40:29.021Z,41.00
2019-03-03T22:42:58.591Z,41.00
2019-03-03T22:45:28.136Z,41.00
2019-03-03T22:47:58.731Z,41.00
2019-03-03T22:50:30.145Z,41.00
2019-03-03T22:53:00.867Z,40.90
2019-03-03T22:55:35.714Z,41.00
2019-03-03T22:58:05.595Z,41.50
2019-03-03T23:01:10.792Z,40.90
2019-03-03T23:04:19.855Z,40.90
2019-03-03T23:07:20.543Z,41.00
2019-03-03T23:10:21.809Z,41.50
2019-03-03T23:13:10.376Z,41.00
2019-03-03T23:15:52.154Z,41.00
2019-03-03T23:18:57.825Z,41.00
2019-03-03T23:22:03.151Z,40.90
2019-03-03T23:25:06.748Z,40.90
2019-03-03T23:27:36.350Z,40.90
2019-03-03T23:30:08.395Z,40.90
2019-03-03T23:32:39.722Z,41.00
2019-03-03T23:35:10.572Z,40.80
2019-03-03T23:37:40.188Z,40.80
2019-03-03T23:40:09.833Z,40.80
2019-03-03T23:42:41.637Z,40.80
2019-03-03T23:45:11.287Z,40.80
2019-03-03T23:47:41.382Z,40.70
2019-03-03T23:50:12.162Z,41.40
2019-03-03T23:52:42.188Z,40.80
2019-03-03T23:55:15.310Z,40.80
2019-03-03T23:57:45.007Z,40.70
